Time;durP1;ratioP1;P1;durP2;ratioP2;P2;SDS_P1;SDS_P2;PMS_P1;PMS_P2;Temp;Humidity;BMP_temperature;BMP_pressure;BME280_temperature;BME280_humidity;BME280_pressure;Samples;Min_cycle;Max_cycle;Signal;HPM_P1;HPM_P2
2021/08/30 00:01:49;;;;;;;7.23;3.17;;;14.70;99.90;;;;;;5072921;28;20190;-67
2021/08/30 00:04:15;;;;;;;4.67;3.50;;;14.70;99.90;;;;;;5073144;28;20168;-66
2021/08/30 00:06:41;;;;;;;4.50;3.57;;;14.60;99.90;;;;;;5072804;28;20228;-68
2021/08/30 00:09:10;;;;;;;5.97;4.27;;;14.60;99.90;;;;;;5071706;28;20275;-67
2021/08/30 00:11:36;;;;;;;6.60;3.77;;;14.60;99.90;;;;;;5072905;28;20403;-65
2021/08/30 00:14:04;;;;;;;4.77;3.90;;;14.70;99.90;;;;;;5071845;28;20414;-68
2021/08/30 00:16:30;;;;;;;5.23;4.73;;;14.70;99.90;;;;;;5075099;28;20194;-69
2021/08/30 00:18:56;;;;;;;3.90;3.40;;;14.70;99.90;;;;;;5076950;28;20430;-65
2021/08/30 00:21:22;;;;;;;4.60;3.63;;;14.70;99.90;;;;;;5076935;28;20377;-67
2021/08/30 00:23:47;;;;;;;6.83;4.53;;;14.60;99.90;;;;;;5077505;28;20407;-67
2021/08/30 00:26:13;;;;;;;5.73;4.93;;;14.60;99.90;;;;;;5076876;28;20626;-66
2021/08/30 00:28:40;;;;;;;5.83;4.57;;;14.60;99.90;;;;;;5075040;28;20674;-65
2021/08/30 00:31:06;;;;;;;5.23;3.70;;;14.60;99.90;;;;;;5076755;28;20175;-65
2021/08/30 00:33:31;;;;;;;5.70;3.93;;;14.60;99.90;;;;;;5076699;28;20452;-66
2021/08/30 00:35:57;;;;;;;6.13;4.07;;;14.70;99.90;;;;;;5077634;28;20488;-67
2021/08/30 00:38:23;;;;;;;9.00;5.77;;;14.70;99.90;;;;;;5075979;28;20532;-66
2021/08/30 00:40:48;;;;;;;5.43;4.67;;;14.70;99.90;;;;;;5075240;28;20191;-66
2021/08/30 00:43:14;;;;;;;6.10;4.33;;;14.70;99.90;;;;;;5076874;28;20577;-67
2021/08/30 00:45:40;;;;;;;7.30;5.07;;;14.70;99.90;;;;;;5076432;28;20183;-68
2021/08/30 00:48:05;;;;;;;6.27;4.30;;;14.60;99.90;;;;;;5075920;28;20184;-66
2021/08/30 00:50:32;;;;;;;5.90;4.50;;;14.70;99.90;;;;;;5075956;28;20176;-67
2021/08/30 00:52:58;;;;;;;5.90;4.90;;;14.70;99.90;;;;;;5076361;28;20599;-66
2021/08/30 00:55:24;;;;;;;7.80;5.80;;;14.70;99.90;;;;;;5076783;28;20509;-68
2021/08/30 00:57:50;;;;;;;8.33;5.20;;;14.60;99.90;;;;;;5075869;28;20406;-68
2021/08/30 01:00:16;;;;;;;7.43;4.73;;;14.60;99.90;;;;;;5074921;28;20806;-66
2021/08/30 01:02:42;;;;;;;7.43;5.70;;;14.70;99.90;;;;;;5076299;28;20417;-68
2021/08/30 01:05:13;;;;;;;8.77;5.47;;;14.70;99.90;;;;;;5075718;28;20480;-67
2021/08/30 01:07:55;;;;;;;9.17;5.77;;;14.60;99.90;;;;;;5075918;28;20411;-67
2021/08/30 01:10:45;;;;;;;6.57;4.50;;;14.70;99.90;;;;;;5075898;28;20413;-67
2021/08/30 01:13:20;;;;;;;7.17;5.60;;;14.60;99.90;;;;;;5075775;28;20414;-65
2021/08/30 01:15:47;;;;;;;7.70;5.97;;;14.70;99.90;;;;;;5075992;28;20414;-67
2021/08/30 01:18:20;;;;;;;6.63;5.80;;;14.70;99.90;;;;;;5075465;28;20410;-66
2021/08/30 01:21:17;;;;;;;7.27;5.50;;;14.70;99.90;;;;;;5075552;28;20422;-67
2021/08/30 01:23:56;;;;;;;5.77;4.83;;;14.70;99.90;;;;;;5075889;28;20493;-66
2021/08/30 01:26:27;;;;;;;7.10;4.97;;;14.70;99.90;;;;;;5074145;28;20454;-66
2021/08/30 01:29:17;;;;;;;5.73;5.10;;;14.70;99.90;;;;;;5074614;28;20858;-68
2021/08/30 01:31:42;;;;;;;6.33;4.80;;;14.70;99.90;;;;;;5075144;28;20919;-67
2021/08/30 01:34:08;;;;;;;7.90;6.23;;;14.70;99.90;;;;;;5075562;28;20494;-67
2021/08/30 01:36:35;;;;;;;8.93;6.27;;;14.70;99.90;;;;;;5075291;28;20256;-68
2021/08/30 01:39:02;;;;;;;5.17;4.67;;;14.70;99.90;;;;;;5075440;28;20189;-67
2021/08/30 01:41:28;;;;;;;6.83;5.90;;;14.70;99.90;;;;;;5075553;28;20765;-67
2021/08/30 01:43:56;;;;;;;7.83;5.93;;;14.70;99.90;;;;;;5075460;28;20403;-66
2021/08/30 01:46:23;;;;;;;7.53;5.00;;;14.70;99.90;;;;;;5075293;28;20438;-67
2021/08/30 01:48:51;;;;;;;8.50;5.10;;;14.70;99.90;;;;;;5074643;28;20493;-68
2021/08/30 01:51:20;;;;;;;9.60;4.90;;;14.70;99.90;;;;;;5075706;28;20399;-67
2021/08/30 01:53:47;;;;;;;4.83;4.27;;;14.70;99.90;;;;;;5075597;28;20420;-67
2021/08/30 01:56:15;;;;;;;6.37;5.50;;;14.70;99.90;;;;;;5075207;28;20897;-68
2021/08/30 02:01:26;;;;;;;8.33;6.57;;;14.70;99.90;;;;;;5074762;28;20426;-67
2021/08/30 02:03:51;;;;;;;5.93;5.20;;;14.70;99.90;;;;;;5075307;28;20385;-67
2021/08/30 02:06:17;;;;;;;5.80;4.80;;;14.70;99.90;;;;;;5075244;28;20198;-68
2021/08/30 02:08:42;;;;;;;4.83;4.27;;;14.70;99.90;;;;;;5074677;28;20559;-68
2021/08/30 02:11:13;;;;;;;7.10;4.67;;;14.70;99.90;;;;;;5074805;28;20163;-67
2021/08/30 02:13:39;;;;;;;6.70;5.00;;;14.70;99.90;;;;;;5074896;28;20204;-66
2021/08/30 02:16:05;;;;;;;6.40;5.80;;;14.70;99.90;;;;;;5074831;28;20413;-65
2021/08/30 02:18:43;;;;;;;9.23;5.20;;;14.70;99.90;;;;;;5074241;28;20838;-66
2021/08/30 02:21:43;;;;;;;5.90;5.10;;;14.70;99.90;;;;;;5075036;28;20795;-65
2021/08/30 02:24:31;;;;;;;7.70;5.20;;;14.60;99.90;;;;;;5074480;28;20413;-65
2021/08/30 02:27:20;;;;;;;6.07;4.73;;;14.60;99.90;;;;;;5074238;28;20465;-64
2021/08/30 02:29:54;;;;;;;9.13;5.23;;;14.60;99.90;;;;;;5074569;28;20433;-68
2021/08/30 02:32:21;;;;;;;4.70;4.20;;;14.60;99.90;;;;;;5074380;28;20432;-66
2021/08/30 02:34:55;;;;;;;6.30;5.10;;;14.60;99.90;;;;;;5074411;28;20399;-64
2021/08/30 02:37:23;;;;;;;6.13;5.23;;;14.60;99.90;;;;;;5072720;28;20497;-65
2021/08/30 02:39:51;;;;;;;4.77;4.13;;;14.60;99.90;;;;;;5073803;28;20821;-68
2021/08/30 02:42:18;;;;;;;4.50;4.00;;;14.60;99.90;;;;;;5074293;28;20753;-67
2021/08/30 02:44:45;;;;;;;5.37;4.30;;;14.60;99.90;;;;;;5074267;28;20876;-66
2021/08/30 02:47:12;;;;;;;7.30;5.00;;;14.50;99.90;;;;;;5073646;28;20775;-66
2021/08/30 02:49:43;;;;;;;4.23;3.83;;;14.50;99.90;;;;;;5074007;28;20488;-66
2021/08/30 02:52:11;;;;;;;7.13;5.13;;;14.50;99.90;;;;;;5074059;28;20897;-68
2021/08/30 02:54:37;;;;;;;5.93;4.03;;;14.50;99.90;;;;;;5073846;28;20767;-67
2021/08/30 02:57:04;;;;;;;3.73;3.43;;;14.50;99.90;;;;;;5073712;28;20432;-68
2021/08/30 02:59:31;;;;;;;5.33;4.27;;;14.50;99.90;;;;;;5073743;28;20770;-67
2021/08/30 03:02:00;;;;;;;4.77;3.93;;;14.50;99.90;;;;;;5073809;28;20429;-67
2021/08/30 03:04:26;;;;;;;4.63;3.53;;;14.50;99.90;;;;;;5073805;28;20912;-66
2021/08/30 03:06:52;;;;;;;5.03;3.70;;;14.50;99.90;;;;;;5073481;28;20730;-67
2021/08/30 03:09:18;;;;;;;4.33;3.93;;;14.50;99.90;;;;;;5073284;28;20969;-67
2021/08/30 03:11:47;;;;;;;5.30;3.60;;;14.50;99.90;;;;;;5073883;28;20380;-67
2021/08/30 03:14:15;;;;;;;3.67;3.30;;;14.50;99.90;;;;;;5073783;28;20436;-67
2021/08/30 03:16:41;;;;;;;4.00;3.60;;;14.50;99.90;;;;;;5073149;28;20501;-69
2021/08/30 03:19:11;;;;;;;4.73;4.43;;;14.50;99.90;;;;;;5073711;28;20445;-68
2021/08/30 03:21:38;;;;;;;4.77;3.93;;;14.50;99.90;;;;;;5073588;28;20549;-67
2021/08/30 03:24:06;;;;;;;5.87;4.43;;;14.50;99.90;;;;;;5073237;28;20549;-67
2021/08/30 03:26:32;;;;;;;3.20;3.00;;;14.40;99.90;;;;;;5072008;28;20421;-68
2021/08/30 03:28:58;;;;;;;5.40;3.90;;;14.40;99.90;;;;;;5073083;28;20465;-64
2021/08/30 03:31:27;;;;;;;3.83;3.37;;;14.40;99.90;;;;;;5073228;28;20445;-67
2021/08/30 03:33:54;;;;;;;6.47;4.30;;;14.40;99.90;;;;;;5073990;28;20409;-67
2021/08/30 03:36:19;;;;;;;5.87;4.57;;;14.40;99.90;;;;;;5073462;28;20430;-65
2021/08/30 03:38:46;;;;;;;5.27;4.77;;;14.40;99.90;;;;;;5072842;28;20929;-66
2021/08/30 03:41:13;;;;;;;5.73;4.13;;;14.40;99.90;;;;;;5073425;28;20172;-66
2021/08/30 03:43:41;;;;;;;6.57;4.33;;;14.50;99.90;;;;;;5073216;28;20376;-67
2021/08/30 03:46:07;;;;;;;4.20;3.80;;;14.40;99.90;;;;;;5071611;28;20795;-67
2021/08/30 03:48:32;;;;;;;5.67;5.03;;;14.50;99.90;;;;;;5072511;28;20457;-68
2021/08/30 03:51:00;;;;;;;6.10;4.53;;;14.40;99.90;;;;;;5071342;28;20412;-65
2021/08/30 03:53:28;;;;;;;5.43;3.97;;;14.50;99.90;;;;;;5071963;28;20172;-67
2021/08/30 03:55:55;;;;;;;6.17;5.57;;;14.40;99.90;;;;;;5073302;28;20416;-67
2021/08/30 03:58:22;;;;;;;7.60;5.20;;;14.50;99.90;;;;;;5072646;28;20408;-68
2021/08/30 04:00:47;;;;;;;6.97;5.73;;;14.50;99.90;;;;;;5073136;28;20934;-67
2021/08/30 04:03:15;;;;;;;6.10;5.07;;;14.40;99.90;;;;;;5073020;28;20505;-67
2021/08/30 04:05:42;;;;;;;8.90;4.87;;;14.40;99.90;;;;;;5071833;28;20437;-67
2021/08/30 04:08:09;;;;;;;5.77;4.20;;;14.50;99.90;;;;;;5072475;28;20402;-68
2021/08/30 04:10:36;;;;;;;8.17;6.13;;;14.40;99.90;;;;;;5072980;28;20839;-67
2021/08/30 04:13:03;;;;;;;7.53;5.27;;;14.50;99.90;;;;;;5072979;28;20369;-67
2021/08/30 04:15:30;;;;;;;7.40;5.10;;;14.50;99.90;;;;;;5072746;28;20857;-68
2021/08/30 04:17:56;;;;;;;6.70;6.00;;;14.50;99.90;;;;;;5072244;28;20418;-69
2021/08/30 04:20:21;;;;;;;6.90;5.57;;;14.50;99.90;;;;;;5073031;28;20420;-68
2021/08/30 04:22:47;;;;;;;7.60;5.70;;;14.50;99.90;;;;;;5073079;28;20626;-68
2021/08/30 04:25:13;;;;;;;6.47;5.50;;;14.50;99.90;;;;;;5073049;28;20275;-69
2021/08/30 04:27:39;;;;;;;8.00;5.50;;;14.50;99.90;;;;;;5072501;28;20471;-66
2021/08/30 04:30:06;;;;;;;7.93;7.13;;;14.50;99.90;;;;;;5072527;28;20212;-67
2021/08/30 04:32:34;;;;;;;5.33;4.83;;;14.50;99.90;;;;;;5072759;28;20513;-67
2021/08/30 04:35:00;;;;;;;9.60;5.97;;;14.50;99.90;;;;;;5072870;28;20402;-67
2021/08/30 04:37:26;;;;;;;7.40;4.73;;;14.50;99.90;;;;;;5072235;28;20413;-66
2021/08/30 04:39:52;;;;;;;5.17;4.67;;;14.50;99.90;;;;;;5072169;28;20445;-66
2021/08/30 04:42:18;;;;;;;6.80;4.80;;;14.50;99.90;;;;;;5071418;28;20191;-68
2021/08/30 04:44:44;;;;;;;9.00;6.03;;;14.50;99.90;;;;;;5072163;28;20175;-67
2021/08/30 04:47:09;;;;;;;7.07;5.07;;;14.50;99.90;;;;;;5072310;28;20173;-67
2021/08/30 04:49:35;;;;;;;7.57;5.90;;;14.50;99.90;;;;;;5072590;28;20454;-68
2021/08/30 04:52:01;;;;;;;7.57;6.27;;;14.50;99.90;;;;;;5071144;28;20271;-68
2021/08/30 04:54:26;;;;;;;7.63;5.60;;;14.50;99.90;;;;;;5068738;28;20175;-66
2021/08/30 04:56:52;;;;;;;7.57;5.50;;;14.50;99.90;;;;;;5071985;28;20190;-67
2021/08/30 04:59:17;;;;;;;7.73;4.37;;;14.50;99.90;;;;;;5057948;28;20215;-66
2021/08/30 05:01:43;;;;;;;5.30;4.77;;;14.50;99.90;;;;;;5053684;28;20234;-67
2021/08/30 05:04:09;;;;;;;8.00;6.27;;;14.50;99.90;;;;;;5065491;28;20669;-68
2021/08/30 05:06:34;;;;;;;7.30;5.23;;;14.50;99.90;;;;;;5073531;28;20175;-68
2021/08/30 05:09:00;;;;;;;6.57;5.10;;;14.50;99.90;;;;;;5072382;28;20231;-67
2021/08/30 05:11:26;;;;;;;7.20;5.30;;;14.50;99.90;;;;;;5073870;28;20270;-66
2021/08/30 05:13:51;;;;;;;8.50;6.37;;;14.50;99.90;;;;;;5073813;28;20410;-68
2021/08/30 05:16:17;;;;;;;7.10;6.23;;;14.60;99.90;;;;;;5073725;28;20576;-67
2021/08/30 05:18:43;;;;;;;5.60;4.33;;;14.50;99.90;;;;;;5073130;28;20211;-67
2021/08/30 05:21:09;;;;;;;6.23;5.20;;;14.50;99.90;;;;;;5074315;28;20169;-66
2021/08/30 05:23:35;;;;;;;6.23;5.23;;;14.50;99.90;;;;;;5075774;28;20624;-67
2021/08/30 05:26:01;;;;;;;7.17;4.67;;;14.60;99.90;;;;;;5075684;28;20399;-67
2021/08/30 05:28:27;;;;;;;6.60;5.20;;;14.60;99.90;;;;;;5075212;28;20466;-68
2021/08/30 05:30:53;;;;;;;6.93;5.17;;;14.60;99.90;;;;;;5075646;28;20765;-67
2021/08/30 05:33:19;;;;;;;7.07;4.63;;;14.60;99.90;;;;;;5074003;28;20545;-67
2021/08/30 05:35:45;;;;;;;6.80;4.90;;;14.70;99.90;;;;;;5074206;28;20414;-67
2021/08/30 05:38:11;;;;;;;6.53;5.47;;;14.70;99.90;;;;;;5075145;28;20405;-67
2021/08/30 05:40:37;;;;;;;8.73;5.03;;;14.70;99.90;;;;;;5075641;28;20393;-68
2021/08/30 05:43:03;;;;;;;5.87;5.20;;;14.70;99.90;;;;;;5075470;28;20859;-66
2021/08/30 05:45:31;;;;;;;9.17;6.70;;;14.70;99.90;;;;;;5075378;28;20402;-66
2021/08/30 05:47:56;;;;;;;8.10;5.77;;;14.80;99.90;;;;;;5073346;28;20633;-67
2021/08/30 05:50:22;;;;;;;6.77;5.63;;;14.80;99.90;;;;;;5075280;28;20439;-66
2021/08/30 05:52:48;;;;;;;8.50;5.93;;;14.90;99.90;;;;;;5075127;28;20161;-66
2021/08/30 05:55:13;;;;;;;10.03;6.20;;;14.90;99.90;;;;;;5075512;28;20207;-65
2021/08/30 05:57:39;;;;;;;5.90;5.13;;;14.90;99.90;;;;;;5074698;28;20164;-67
2021/08/30 06:00:06;;;;;;;8.07;4.87;;;14.90;99.90;;;;;;5074969;28;20280;-66
2021/08/30 06:02:32;;;;;;;6.90;4.70;;;14.90;99.90;;;;;;5074782;28;20164;-67
2021/08/30 06:04:58;;;;;;;5.03;4.53;;;14.90;99.90;;;;;;5069848;28;20793;-66
2021/08/30 06:07:23;;;;;;;9.50;6.80;;;15.00;99.90;;;;;;5073963;28;20195;-66
2021/08/30 06:09:49;;;;;;;5.90;4.50;;;15.00;99.90;;;;;;5074609;28;20200;-67
2021/08/30 06:12:15;;;;;;;6.40;5.40;;;15.00;99.90;;;;;;5074946;28;20164;-67
2021/08/30 06:14:41;;;;;;;8.07;5.70;;;15.10;99.90;;;;;;5073970;28;20179;-66
2021/08/30 06:17:07;;;;;;;7.00;5.40;;;15.20;99.90;;;;;;5073043;28;20176;-67
2021/08/30 06:19:33;;;;;;;6.37;5.63;;;15.30;99.90;;;;;;5074638;28;20430;-66
2021/08/30 06:21:59;;;;;;;8.93;5.63;;;15.50;99.90;;;;;;5074690;28;20738;-66
2021/08/30 06:24:25;;;;;;;8.97;6.30;;;15.60;99.90;;;;;;5074491;28;20415;-66
2021/08/30 06:26:50;;;;;;;7.90;5.93;;;15.80;99.90;;;;;;5074248;28;20430;-66
2021/08/30 06:29:16;;;;;;;7.27;6.23;;;15.90;99.90;;;;;;5074099;28;20237;-68
2021/08/30 06:31:42;;;;;;;6.57;5.20;;;15.90;99.90;;;;;;5074181;28;20187;-65
2021/08/30 06:34:07;;;;;;;5.97;5.37;;;16.00;99.90;;;;;;5074636;28;20662;-65
2021/08/30 06:36:33;;;;;;;7.00;6.30;;;15.90;99.90;;;;;;5074077;28;20238;-67
2021/08/30 06:39:00;;;;;;;6.93;5.60;;;16.00;99.90;;;;;;5074109;28;20217;-68
2021/08/30 06:41:27;;;;;;;6.80;4.37;;;16.00;99.90;;;;;;5074326;28;20165;-65
2021/08/30 06:43:53;;;;;;;6.17;5.03;;;16.00;99.90;;;;;;5073887;28;20398;-67
2021/08/30 06:46:19;;;;;;;6.93;4.93;;;16.00;99.90;;;;;;5074223;28;20449;-66
2021/08/30 06:48:44;;;;;;;5.30;4.80;;;16.00;99.90;;;;;;5073535;28;20489;-66
2021/08/30 06:51:10;;;;;;;6.80;4.70;;;16.00;99.90;;;;;;5074001;28;20157;-66
2021/08/30 06:53:36;;;;;;;4.93;4.30;;;16.00;99.90;;;;;;5073961;28;20167;-68
2021/08/30 06:56:01;;;;;;;5.07;4.53;;;16.00;99.90;;;;;;5073599;28;20211;-66
2021/08/30 06:58:27;;;;;;;5.27;4.77;;;16.10;99.90;;;;;;5073604;28;20287;-66
2021/08/30 07:00:53;;;;;;;8.17;5.10;;;16.10;99.90;;;;;;5073895;28;20165;-67
2021/08/30 07:03:18;;;;;;;5.10;4.70;;;16.30;99.90;;;;;;5073748;28;20166;-66
2021/08/30 07:05:44;;;;;;;5.00;4.47;;;16.50;99.90;;;;;;5073808;28;20174;-66
2021/08/30 07:08:10;;;;;;;5.07;4.57;;;16.80;99.90;;;;;;5073196;28;20177;-66
2021/08/30 07:10:35;;;;;;;5.00;4.50;;;17.00;99.90;;;;;;5073499;28;20231;-67
2021/08/30 07:13:01;;;;;;;7.77;4.33;;;17.00;99.90;;;;;;5073869;28;20496;-67
2021/08/30 07:15:27;;;;;;;7.33;4.93;;;17.00;99.90;;;;;;5073757;28;20258;-67
2021/08/30 07:17:53;;;;;;;6.07;5.10;;;17.00;99.90;;;;;;5073236;28;20171;-66
2021/08/30 07:20:18;;;;;;;6.93;4.90;;;17.00;99.90;;;;;;5073453;28;20198;-68
2021/08/30 07:22:44;;;;;;;5.13;4.60;;;17.00;99.90;;;;;;5073406;28;20187;-67
2021/08/30 07:25:10;;;;;;;4.10;3.70;;;17.10;99.90;;;;;;5072748;28;20179;-67
2021/08/30 07:27:36;;;;;;;5.87;5.10;;;17.10;99.90;;;;;;5072803;28;20240;-66
2021/08/30 07:30:04;;;;;;;7.17;4.90;;;17.00;99.90;;;;;;5073118;28;20537;-68
2021/08/30 07:32:29;;;;;;;4.77;4.37;;;17.00;99.90;;;;;;5072894;28;20187;-65
2021/08/30 07:34:55;;;;;;;6.40;4.47;;;17.00;99.90;;;;;;5073247;28;20400;-66
2021/08/30 07:37:21;;;;;;;4.40;4.00;;;17.10;99.90;;;;;;5075685;28;20303;-66
2021/08/30 07:39:46;;;;;;;5.40;4.70;;;17.10;99.90;;;;;;5081420;28;20201;-63
2021/08/30 07:42:12;;;;;;;4.53;3.73;;;17.00;99.90;;;;;;5076428;28;20171;-65
2021/08/30 07:44:38;;;;;;;5.60;4.90;;;17.00;99.90;;;;;;5086203;28;20193;-65
2021/08/30 07:47:04;;;;;;;4.87;3.93;;;17.00;99.90;;;;;;5092848;28;20170;-65
2021/08/30 07:49:31;;;;;;;4.60;4.20;;;17.00;99.90;;;;;;5093243;28;20196;-63
2021/08/30 07:51:56;;;;;;;5.70;4.33;;;17.10;99.90;;;;;;5093126;28;20470;-64
2021/08/30 07:54:22;;;;;;;4.57;4.10;;;17.10;99.90;;;;;;5093370;28;20461;-64
2021/08/30 07:56:48;;;;;;;5.20;3.80;;;17.10;99.90;;;;;;5093084;28;20215;-64
2021/08/30 07:59:13;;;;;;;5.63;5.00;;;17.00;99.90;;;;;;5082739;28;20189;-64
2021/08/30 08:01:39;;;;;;;6.20;5.07;;;16.90;99.90;;;;;;5072701;28;20257;-64
2021/08/30 08:04:05;;;;;;;3.67;3.30;;;16.80;99.90;;;;;;5072849;28;20177;-65
2021/08/30 08:06:31;;;;;;;4.63;4.23;;;16.70;99.90;;;;;;5072704;28;20167;-66
2021/08/30 08:08:56;;;;;;;5.27;4.77;;;16.80;99.90;;;;;;5072708;28;20447;-63
2021/08/30 08:11:22;;;;;;;4.73;3.57;;;16.80;99.90;;;;;;5072973;28;20637;-63
2021/08/30 08:13:48;;;;;;;3.90;3.43;;;16.80;99.90;;;;;;5072691;28;20177;-64
2021/08/30 08:16:14;;;;;;;3.43;3.03;;;16.80;99.90;;;;;;5072708;28;20292;-63
2021/08/30 08:18:39;;;;;;;4.97;4.13;;;16.80;99.90;;;;;;5072415;28;20324;-64
2021/08/30 08:21:07;;;;;;;4.23;3.83;;;16.70;99.90;;;;;;5071515;28;20419;-63
2021/08/30 08:23:34;;;;;;;8.10;4.70;;;16.60;99.90;;;;;;5072864;28;20529;-63
2021/08/30 08:26:00;;;;;;;4.70;4.10;;;16.60;99.90;;;;;;5072701;28;20905;-63
2021/08/30 08:28:26;;;;;;;4.77;3.33;;;16.50;99.90;;;;;;5071873;28;22343;-64
2021/08/30 08:30:52;;;;;;;5.30;4.20;;;16.50;99.90;;;;;;5072612;28;20386;-63
2021/08/30 08:33:17;;;;;;;3.10;2.80;;;16.50;99.90;;;;;;5072598;28;20268;-65
2021/08/30 08:35:43;;;;;;;3.17;2.90;;;16.60;99.90;;;;;;5072695;28;20734;-64
2021/08/30 08:38:10;;;;;;;3.50;3.30;;;16.60;99.90;;;;;;5075897;28;20165;-65
2021/08/30 08:40:36;;;;;;;2.97;2.77;;;16.70;99.90;;;;;;5076815;28;20243;-66
2021/08/30 08:43:09;;;;;;;4.93;4.30;;;16.70;99.90;;;;;;5076195;28;20436;-64
2021/08/30 08:45:36;;;;;;;2.43;2.23;;;16.70;99.90;;;;;;5076238;28;20407;-66
2021/08/30 08:48:03;;;;;;;2.80;2.60;;;16.60;99.90;;;;;;5076002;28;20408;-65
2021/08/30 08:50:30;;;;;;;2.67;2.47;;;16.40;99.90;;;;;;5075822;28;20433;-66
2021/08/30 08:52:55;;;;;;;2.67;2.47;;;16.40;99.90;;;;;;5076356;28;20845;-65
2021/08/30 08:55:21;;;;;;;2.90;2.70;;;16.40;99.90;;;;;;5076083;28;20498;-65
2021/08/30 08:57:47;;;;;;;3.63;3.30;;;17.00;99.90;;;;;;5075675;28;20193;-66
2021/08/30 09:00:14;;;;;;;3.13;2.93;;;17.30;99.90;;;;;;5076274;28;20256;-65
2021/08/30 09:02:40;;;;;;;3.83;3.53;;;17.60;99.90;;;;;;5076105;28;20172;-65
2021/08/30 09:05:08;;;;;;;3.40;3.10;;;17.80;99.90;;;;;;5074684;28;20457;-65
2021/08/30 09:07:39;;;;;;;2.63;2.43;;;18.30;99.90;;;;;;5075700;28;20256;-65
2021/08/30 09:10:11;;;;;;;2.77;2.57;;;19.30;99.90;;;;;;5055658;28;20524;-66
2021/08/30 09:12:37;;;;;;;6.83;3.57;;;19.80;99.90;;;;;;5055587;28;20483;-66
2021/08/30 09:15:16;;;;;;;3.27;2.97;;;19.90;99.90;;;;;;5055729;28;20386;-65
2021/08/30 09:17:55;;;;;;;4.20;3.40;;;19.90;99.90;;;;;;5070636;28;20181;-64
2021/08/30 09:20:26;;;;;;;2.73;2.53;;;19.60;99.90;;;;;;5055714;28;20942;-65
2021/08/30 09:22:53;;;;;;;8.03;3.80;;;19.30;99.90;;;;;;5058518;28;20406;-65
2021/08/30 09:25:20;;;;;;;5.10;3.20;;;19.30;99.90;;;;;;5075628;28;20472;-66
2021/08/30 09:27:51;;;;;;;3.90;3.37;;;19.30;99.90;;;;;;5075173;28;20378;-65
2021/08/30 09:30:24;;;;;;;3.10;2.90;;;19.40;99.90;;;;;;5075494;28;20458;-64
2021/08/30 09:32:50;;;;;;;3.00;2.73;;;19.80;99.90;;;;;;5075461;28;20429;-65
2021/08/30 09:35:16;;;;;;;3.63;3.33;;;20.70;99.90;;;;;;5075570;28;20444;-66
2021/08/30 09:37:44;;;;;;;3.70;3.40;;;21.40;99.90;;;;;;5074898;28;20402;-66
2021/08/30 09:40:16;;;;;;;3.03;2.73;;;21.80;99.90;;;;;;5075600;28;20777;-66
2021/08/30 09:42:54;;;;;;;3.77;3.27;;;21.90;99.90;;;;;;5075204;28;20442;-66
2021/08/30 09:45:26;;;;;;;4.23;3.83;;;21.70;99.90;;;;;;5075285;28;20388;-67
2021/08/30 09:48:00;;;;;;;4.60;3.67;;;21.30;99.90;;;;;;5074117;28;20705;-66
2021/08/30 09:50:34;;;;;;;4.33;3.07;;;20.70;99.90;;;;;;5075067;28;20461;-66
2021/08/30 09:53:01;;;;;;;5.10;3.83;;;20.20;99.90;;;;;;5074997;28;20394;-66
2021/08/30 09:55:28;;;;;;;4.33;3.93;;;19.80;99.90;;;;;;5075264;28;20494;-64
2021/08/30 09:57:55;;;;;;;4.33;3.90;;;19.40;99.90;;;;;;5074887;28;20486;-66
2021/08/30 10:00:21;;;;;;;4.70;4.03;;;19.10;99.90;;;;;;5075233;28;20490;-66
2021/08/30 10:02:50;;;;;;;4.47;3.43;;;19.00;99.90;;;;;;5075064;28;20374;-65
2021/08/30 10:05:17;;;;;;;5.83;4.13;;;19.00;99.90;;;;;;5075159;28;20931;-66
2021/08/30 10:07:45;;;;;;;4.87;4.37;;;19.00;99.90;;;;;;5074407;28;20423;-65
2021/08/30 10:10:11;;;;;;;4.97;4.13;;;19.00;99.90;;;;;;5074936;28;20840;-66
2021/08/30 10:12:38;;;;;;;7.23;3.67;;;19.10;99.90;;;;;;5074777;28;20404;-66
2021/08/30 10:15:06;;;;;;;4.13;3.73;;;19.20;99.90;;;;;;5075191;28;20403;-66
2021/08/30 10:17:31;;;;;;;4.50;4.10;;;19.30;99.90;;;;;;5074284;28;20471;-66
2021/08/30 10:19:59;;;;;;;4.10;3.70;;;19.30;99.90;;;;;;5074540;28;20478;-66
2021/08/30 10:22:25;;;;;;;3.17;2.87;;;19.20;99.90;;;;;;5074023;28;20468;-66
2021/08/30 10:24:52;;;;;;;4.23;3.83;;;19.20;99.90;;;;;;5070787;28;20434;-65
2021/08/30 10:27:33;;;;;;;4.50;4.10;;;19.00;99.90;;;;;;5076907;28;20398;-63
2021/08/30 10:30:09;;;;;;;4.23;3.83;;;19.00;99.90;;;;;;5094733;28;20471;-66
2021/08/30 10:32:43;;;;;;;3.73;3.20;;;19.00;99.90;;;;;;5074222;28;20488;-65
2021/08/30 10:35:20;;;;;;;2.90;2.50;;;19.20;99.90;;;;;;5074086;28;20493;-66
2021/08/30 10:37:57;;;;;;;4.73;3.67;;;19.30;99.90;;;;;;5072122;28;20945;-65
2021/08/30 10:40:24;;;;;;;4.40;4.00;;;19.40;99.90;;;;;;5074270;28;20457;-67
2021/08/30 10:43:09;;;;;;;7.43;3.30;;;19.30;99.90;;;;;;5074283;28;20435;-64
2021/08/30 10:45:57;;;;;;;4.70;3.50;;;19.30;99.90;;;;;;5074276;28;20374;-65
2021/08/30 10:48:36;;;;;;;3.40;3.07;;;19.30;99.90;;;;;;5073474;28;20418;-67
2021/08/30 10:51:19;;;;;;;5.50;4.00;;;19.10;99.90;;;;;;5074035;28;20400;-64
2021/08/30 10:53:59;;;;;;;5.67;5.17;;;19.00;99.90;;;;;;5074439;28;20391;-65
2021/08/30 10:56:26;;;;;;;4.60;4.20;;;18.60;99.90;;;;;;5074528;28;20810;-68
2021/08/30 10:58:52;;;;;;;5.43;3.90;;;18.50;99.90;;;;;;5072682;28;20431;-67
2021/08/30 11:01:18;;;;;;;4.87;4.47;;;18.40;99.90;;;;;;5073895;28;20422;-65
2021/08/30 11:03:43;;;;;;;3.67;3.40;;;18.30;99.90;;;;;;5073963;28;20253;-67
2021/08/30 11:06:15;;;;;;;5.47;3.90;;;18.20;99.90;;;;;;5072953;28;20183;-67
2021/08/30 11:08:42;;;;;;;4.73;3.60;;;18.00;99.90;;;;;;5072155;28;20701;-67
2021/08/30 11:11:22;;;;;;;5.10;3.90;;;18.00;99.90;;;;;;5073408;28;20408;-67
2021/08/30 11:14:09;;;;;;;7.47;4.27;;;18.30;99.90;;;;;;5072996;28;20447;-66
2021/08/30 11:16:38;;;;;;;5.07;4.33;;;18.70;99.90;;;;;;5073365;28;20376;-68
2021/08/30 11:19:10;;;;;;;4.40;3.27;;;19.10;99.90;;;;;;5073427;28;20431;-66
2021/08/30 11:21:48;;;;;;;3.17;2.70;;;19.20;99.90;;;;;;5073792;28;20396;-67
2021/08/30 11:24:43;;;;;;;4.50;3.50;;;19.50;99.90;;;;;;5073578;28;20407;-65
2021/08/30 11:27:21;;;;;;;3.60;3.20;;;19.60;99.90;;;;;;5064070;28;20411;-66
2021/08/30 11:29:50;;;;;;;4.40;4.00;;;19.70;99.90;;;;;;5053053;28;20451;-67
2021/08/30 11:32:18;;;;;;;4.43;3.47;;;19.70;99.90;;;;;;5053264;28;20810;-65
2021/08/30 11:34:44;;;;;;;5.03;3.40;;;19.80;99.90;;;;;;5053250;28;20492;-66
2021/08/30 11:37:13;;;;;;;3.73;3.43;;;19.80;99.90;;;;;;5053116;28;20495;-67
2021/08/30 11:39:43;;;;;;;3.53;3.23;;;19.80;99.90;;;;;;5053201;28;20407;-66
2021/08/30 11:42:15;;;;;;;4.97;4.27;;;19.70;99.90;;;;;;5055235;28;20463;-66
2021/08/30 11:44:42;;;;;;;4.80;3.90;;;19.50;99.90;;;;;;5073246;28;20389;-65
2021/08/30 11:47:11;;;;;;;5.30;4.30;;;19.40;99.90;;;;;;5072656;28;20431;-64
2021/08/30 11:49:51;;;;;;;4.37;3.97;;;19.30;99.90;;;;;;5072922;28;20561;-65
2021/08/30 11:52:20;;;;;;;4.53;4.00;;;19.30;99.90;;;;;;5073355;28;20403;-64
2021/08/30 11:55:02;;;;;;;4.70;4.30;;;19.20;99.90;;;;;;5072442;28;20373;-66
2021/08/30 11:57:38;;;;;;;4.13;3.70;;;19.20;99.90;;;;;;5072249;28;20457;-65
2021/08/30 12:00:06;;;;;;;9.67;4.70;;;19.20;99.90;;;;;;5073029;28;20478;-65
2021/08/30 12:02:35;;;;;;;5.40;4.40;;;19.30;99.90;;;;;;5073033;28;20385;-65
2021/08/30 12:05:03;;;;;;;4.87;3.97;;;19.30;99.90;;;;;;5072876;28;20765;-65
2021/08/30 12:07:33;;;;;;;5.03;4.43;;;19.40;99.90;;;;;;5071308;28;20917;-65
2021/08/30 12:10:00;;;;;;;5.83;4.23;;;19.40;99.90;;;;;;5073003;28;20432;-65
2021/08/30 12:12:34;;;;;;;5.10;4.20;;;19.30;99.90;;;;;;5075039;28;20415;-65
2021/08/30 12:15:02;;;;;;;6.83;5.10;;;19.10;99.90;;;;;;5077142;28;20386;-64
2021/08/30 12:17:30;;;;;;;6.47;5.70;;;19.00;99.90;;;;;;5076837;28;20434;-64
2021/08/30 12:19:59;;;;;;;23.63;5.03;;;18.90;99.90;;;;;;5075767;28;20545;-66
2021/08/30 12:22:31;;;;;;;6.73;4.93;;;18.90;99.90;;;;;;5075046;28;20410;-66
2021/08/30 12:25:09;;;;;;;5.33;4.83;;;19.00;99.90;;;;;;5075213;28;20411;-67
2021/08/30 12:27:37;;;;;;;5.60;4.37;;;19.00;99.90;;;;;;5075567;28;20427;-64
2021/08/30 12:30:28;;;;;;;4.00;3.50;;;19.00;99.90;;;;;;5075889;28;20831;-66
2021/08/30 12:32:59;;;;;;;4.50;3.70;;;18.80;99.90;;;;;;5070847;28;20445;-65
2021/08/30 12:35:47;;;;;;;4.23;3.83;;;18.70;99.90;;;;;;5076467;28;20488;-65
2021/08/30 12:38:16;;;;;;;5.30;4.60;;;18.70;99.90;;;;;;5076135;28;20386;-64
2021/08/30 12:40:44;;;;;;;5.30;4.37;;;18.80;99.90;;;;;;5076518;28;20409;-66
2021/08/30 12:43:11;;;;;;;4.10;3.70;;;18.80;99.90;;;;;;5076110;28;20415;-64
2021/08/30 12:45:36;;;;;;;3.73;3.00;;;18.80;99.90;;;;;;5076700;28;20417;-65
2021/08/30 12:48:03;;;;;;;4.10;3.67;;;18.70;99.90;;;;;;5076102;28;20410;-65
2021/08/30 12:50:30;;;;;;;3.83;3.50;;;18.80;99.90;;;;;;5076326;28;20200;-66
2021/08/30 12:52:56;;;;;;;5.83;3.47;;;18.80;99.90;;;;;;5076336;28;20385;-66
2021/08/30 12:55:24;;;;;;;3.73;3.43;;;19.00;99.90;;;;;;5076420;28;20926;-65
2021/08/30 12:57:50;;;;;;;3.97;3.20;;;19.10;99.90;;;;;;5075992;28;20464;-65